sensor_id;sensor_type;location;lat;lon;timestamp;pressure;altitude;pressure_sealevel;temperature;humidity
19150;BME280;9707;49.158;8.632;2022-09-09T00:04:27;99966.50;;;26.24;40.24
19150;BME280;9707;49.158;8.632;2022-09-09T00:09:20;99964.78;;;26.23;40.87
19150;BME280;9707;49.158;8.632;2022-09-09T00:11:54;99968.53;;;26.22;40.46
19150;BME280;9707;49.158;8.632;2022-09-09T00:14:58;99966.66;;;26.22;40.79
19150;BME280;9707;49.158;8.632;2022-09-09T00:20:32;99952.16;;;26.22;41.10
19150;BME280;9707;49.158;8.632;2022-09-09T00:25:57;99952.16;;;26.22;40.86
19150;BME280;9707;49.158;8.632;2022-09-09T00:28:26;99957.63;;;26.22;40.86
19150;BME280;9707;49.158;8.632;2022-09-09T00:30:52;99968.53;;;26.22;40.82
19150;BME280;9707;49.158;8.632;2022-09-09T00:33:20;99964.78;;;26.23;40.80
19150;BME280;9707;49.158;8.632;2022-09-09T00:35:50;99963.94;;;26.22;40.72
19150;BME280;9707;49.158;8.632;2022-09-09T00:38:20;99966.84;;;26.21;40.45
19150;BME280;9707;49.158;8.632;2022-09-09T00:41:03;99961.38;;;26.21;40.46
19150;BME280;9707;49.158;8.632;2022-09-09T00:43:36;99958.66;;;26.21;40.72
19150;BME280;9707;49.158;8.632;2022-09-09T00:46:30;99958.66;;;26.21;40.52
19150;BME280;9707;49.158;8.632;2022-09-09T00:49:09;99962.56;;;26.18;40.67
19150;BME280;9707;49.158;8.632;2022-09-09T00:57:14;99975.53;;;26.16;40.92
19150;BME280;9707;49.158;8.632;2022-09-09T00:59:56;99966.31;;;26.17;40.99
19150;BME280;9707;49.158;8.632;2022-09-09T01:11:25;99962.38;;;26.12;41.19
19150;BME280;9707;49.158;8.632;2022-09-09T01:14:32;99967.16;;;26.10;41.01
19150;BME280;9707;49.158;8.632;2022-09-09T01:17:10;99953.50;;;26.10;41.15
19150;BME280;9707;49.158;8.632;2022-09-09T01:25:28;99958.09;;;26.09;41.39
19150;BME280;9707;49.158;8.632;2022-09-09T01:28:06;99976.38;;;26.09;41.01
19150;BME280;9707;49.158;8.632;2022-09-09T01:30:38;99977.38;;;26.08;41.34
19150;BME280;9707;49.158;8.632;2022-09-09T01:33:04;99997.19;;;26.10;41.07
19150;BME280;9707;49.158;8.632;2022-09-09T01:35:58;99988.13;;;26.09;41.46
19150;BME280;9707;49.158;8.632;2022-09-09T01:38:28;99973.97;;;26.06;41.26
19150;BME280;9707;49.158;8.632;2022-09-09T01:40:55;99979.44;;;26.06;41.37
19150;BME280;9707;49.158;8.632;2022-09-09T01:43:21;99990.19;;;26.07;41.17
19150;BME280;9707;49.158;8.632;2022-09-09T01:45:49;99989.16;;;26.08;41.09
19150;BME280;9707;49.158;8.632;2022-09-09T01:48:16;99991.88;;;26.08;41.50
19150;BME280;9707;49.158;8.632;2022-09-09T01:50:42;99986.28;;;26.10;40.82
19150;BME280;9707;49.158;8.632;2022-09-09T01:53:08;99990.03;;;26.09;41.19
19150;BME280;9707;49.158;8.632;2022-09-09T01:55:39;99981.13;;;26.07;41.04
19150;BME280;9707;49.158;8.632;2022-09-09T02:04:11;99982.16;;;26.06;40.99
19150;BME280;9707;49.158;8.632;2022-09-09T02:06:41;99973.09;;;26.05;41.04
19150;BME280;9707;49.158;8.632;2022-09-09T02:09:10;99980.47;;;26.05;40.97
19150;BME280;9707;49.158;8.632;2022-09-09T02:11:37;99974.84;;;26.06;41.39
19150;BME280;9707;49.158;8.632;2022-09-09T02:14:08;99978.25;;;26.08;41.36
19150;BME280;9707;49.158;8.632;2022-09-09T02:16:48;99974.84;;;26.06;41.42
19150;BME280;9707;49.158;8.632;2022-09-09T02:19:28;99972.09;;;26.06;41.47
19150;BME280;9707;49.158;8.632;2022-09-09T02:21:57;99982.16;;;26.06;41.17
19150;BME280;9707;49.158;8.632;2022-09-09T02:24:24;99975.00;;;26.05;40.98
19150;BME280;9707;49.158;8.632;2022-09-09T02:26:52;99964.75;;;26.07;41.47
19150;BME280;9707;49.158;8.632;2022-09-09T02:29:40;99957.59;;;26.06;41.67
19150;BME280;9707;49.158;8.632;2022-09-09T02:32:09;99950.44;;;26.05;41.72
19150;BME280;9707;49.158;8.632;2022-09-09T02:34:40;99954.00;;;26.05;41.67
19150;BME280;9707;49.158;8.632;2022-09-09T02:37:08;99957.59;;;26.06;41.24
19150;BME280;9707;49.158;8.632;2022-09-09T02:39:34;99952.13;;;26.06;41.32
19150;BME280;9707;49.158;8.632;2022-09-09T02:42:00;99946.66;;;26.06;41.46
19150;BME280;9707;49.158;8.632;2022-09-09T02:44:25;99943.94;;;26.06;41.32
19150;BME280;9707;49.158;8.632;2022-09-09T02:49:56;99939.50;;;26.05;41.10
19150;BME280;9707;49.158;8.632;2022-09-09T02:55:05;99928.75;;;26.03;41.14
19150;BME280;9707;49.158;8.632;2022-09-09T02:57:32;99929.63;;;26.04;41.09
19150;BME280;9707;49.158;8.632;2022-09-09T02:59:58;99935.09;;;26.04;41.31
19150;BME280;9707;49.158;8.632;2022-09-09T03:02:25;99943.28;;;26.04;41.63
19150;BME280;9707;49.158;8.632;2022-09-09T03:04:51;99953.16;;;26.05;41.41
19150;BME280;9707;49.158;8.632;2022-09-09T03:07:18;99953.16;;;26.05;41.65
19150;BME280;9707;49.158;8.632;2022-09-09T03:09:44;99950.44;;;26.05;41.50
19150;BME280;9707;49.158;8.632;2022-09-09T03:12:10;99950.44;;;26.05;41.45
19150;BME280;9707;49.158;8.632;2022-09-09T03:14:36;99947.69;;;26.05;41.22
19150;BME280;9707;49.158;8.632;2022-09-09T03:17:04;99941.22;;;26.06;41.38
19150;BME280;9707;49.158;8.632;2022-09-09T03:19:29;99944.97;;;26.05;41.45
19150;BME280;9707;49.158;8.632;2022-09-09T03:21:55;99945.81;;;26.05;41.55
19150;BME280;9707;49.158;8.632;2022-09-09T03:24:20;99939.50;;;26.05;41.67
19150;BME280;9707;49.158;8.632;2022-09-09T03:26:48;99934.88;;;26.05;41.77
19150;BME280;9707;49.158;8.632;2022-09-09T03:29:13;99933.19;;;26.04;41.63
19150;BME280;9707;49.158;8.632;2022-09-09T03:31:39;99932.34;;;26.04;41.65
19150;BME280;9707;49.158;8.632;2022-09-09T03:34:05;99937.81;;;26.04;41.73
19150;BME280;9707;49.158;8.632;2022-09-09T03:36:30;99950.44;;;26.05;42.14
19150;BME280;9707;49.158;8.632;2022-09-09T03:38:56;99957.91;;;26.03;42.20
19150;BME280;9707;49.158;8.632;2022-09-09T03:41:22;99951.47;;;26.04;42.08
19150;BME280;9707;49.158;8.632;2022-09-09T03:43:52;99954.19;;;26.04;42.34
19150;BME280;9707;49.158;8.632;2022-09-09T03:46:19;99949.72;;;26.03;42.42
19150;BME280;9707;49.158;8.632;2022-09-09T03:48:45;99939.84;;;26.02;42.31
19150;BME280;9707;49.158;8.632;2022-09-09T03:51:10;99939.84;;;26.02;42.40
19150;BME280;9707;49.158;8.632;2022-09-09T03:53:36;99952.44;;;26.03;42.13
19150;BME280;9707;49.158;8.632;2022-09-09T03:56:03;99952.44;;;26.03;42.28
19150;BME280;9707;49.158;8.632;2022-09-09T03:58:28;99948.88;;;26.02;42.47
19150;BME280;9707;49.158;8.632;2022-09-09T04:01:02;99939.84;;;26.02;42.25
19150;BME280;9707;49.158;8.632;2022-09-09T04:03:28;99953.47;;;26.02;41.96
19150;BME280;9707;49.158;8.632;2022-09-09T04:05:56;99952.66;;;26.01;41.99
19150;BME280;9707;49.158;8.632;2022-09-09T04:08:22;99945.28;;;26.02;41.99
19150;BME280;9707;49.158;8.632;2022-09-09T04:10:50;99953.66;;;26.00;42.35
19150;BME280;9707;49.158;8.632;2022-09-09T04:13:17;99959.09;;;26.00;42.24
19150;BME280;9707;49.158;8.632;2022-09-09T04:15:43;99964.56;;;26.00;42.30
19150;BME280;9707;49.158;8.632;2022-09-09T04:18:10;99959.97;;;26.01;42.33
19150;BME280;9707;49.158;8.632;2022-09-09T04:20:37;99959.28;;;25.99;42.00
19150;BME280;9707;49.158;8.632;2022-09-09T04:23:02;99963.03;;;25.98;41.87
19150;BME280;9707;49.158;8.632;2022-09-09T04:25:28;99972.06;;;25.98;41.97
19150;BME280;9707;49.158;8.632;2022-09-09T04:27:55;99972.06;;;25.98;42.04
19150;BME280;9707;49.158;8.632;2022-09-09T04:30:20;99969.34;;;25.98;42.24
19150;BME280;9707;49.158;8.632;2022-09-09T04:32:46;99970.38;;;25.97;41.84
19150;BME280;9707;49.158;8.632;2022-09-09T04:35:11;99970.38;;;25.97;42.02
19150;BME280;9707;49.158;8.632;2022-09-09T04:37:36;99975.84;;;25.97;42.02
19150;BME280;9707;49.158;8.632;2022-09-09T04:40:02;99980.44;;;25.97;42.27
19150;BME280;9707;49.158;8.632;2022-09-09T04:42:28;99977.69;;;25.97;42.02
19150;BME280;9707;49.158;8.632;2022-09-09T04:44:53;99982.31;;;25.96;42.31
19150;BME280;9707;49.158;8.632;2022-09-09T04:47:19;99978.72;;;25.96;42.42
19150;BME280;9707;49.158;8.632;2022-09-09T04:49:44;99985.88;;;25.97;42.32
19150;BME280;9707;49.158;8.632;2022-09-09T04:52:09;99989.63;;;25.96;42.31
19150;BME280;9707;49.158;8.632;2022-09-09T04:54:35;99987.78;;;25.96;42.32
19150;BME280;9707;49.158;8.632;2022-09-09T04:57:00;99988.78;;;25.95;42.13
19150;BME280;9707;49.158;8.632;2022-09-09T04:59:25;99986.91;;;25.96;42.58
19150;BME280;9707;49.158;8.632;2022-09-09T05:01:51;99989.63;;;25.96;42.24
19150;BME280;9707;49.158;8.632;2022-09-09T05:04:16;99995.97;;;25.96;42.30
19150;BME280;9707;49.158;8.632;2022-09-09T05:06:41;99993.91;;;25.98;42.50
19150;BME280;9707;49.158;8.632;2022-09-09T05:09:07;100003.63;;;26.01;42.37
19150;BME280;9707;49.158;8.632;2022-09-09T05:11:34;99999.88;;;26.02;42.31
19150;BME280;9707;49.158;8.632;2022-09-09T05:14:02;100005.03;;;26.05;42.49
19150;BME280;9707;49.158;8.632;2022-09-09T05:16:28;100004.00;;;26.06;42.02
19150;BME280;9707;49.158;8.632;2022-09-09T05:18:53;100000.41;;;26.05;41.80
19150;BME280;9707;49.158;8.632;2022-09-09T05:21:21;100008.44;;;26.07;41.72
19150;BME280;9707;49.158;8.632;2022-09-09T05:23:48;100009.97;;;26.09;41.76
19150;BME280;9707;49.158;8.632;2022-09-09T05:26:15;100013.56;;;26.10;41.86
19150;BME280;9707;49.158;8.632;2022-09-09T05:28:41;100020.72;;;26.11;41.83
19150;BME280;9707;49.158;8.632;2022-09-09T05:31:08;100012.38;;;26.12;41.46
19150;BME280;9707;49.158;8.632;2022-09-09T05:33:37;100008.63;;;26.13;41.23
19150;BME280;9707;49.158;8.632;2022-09-09T05:36:07;100007.59;;;26.14;41.01
19150;BME280;9707;49.158;8.632;2022-09-09T05:38:34;100008.78;;;26.12;40.92
19150;BME280;9707;49.158;8.632;2022-09-09T05:41:00;100007.44;;;26.16;41.01
19150;BME280;9707;49.158;8.632;2022-09-09T05:43:27;100008.31;;;26.16;41.09
19150;BME280;9707;49.158;8.632;2022-09-09T05:48:30;100016.31;;;26.18;40.83
19150;BME280;9707;49.158;8.632;2022-09-09T05:50:57;100016.31;;;26.18;40.93
19150;BME280;9707;49.158;8.632;2022-09-09T05:53:22;100009.84;;;26.19;40.47
19150;BME280;9707;49.158;8.632;2022-09-09T05:55:48;100011.72;;;26.18;40.67
19150;BME280;9707;49.158;8.632;2022-09-09T05:58:14;100009.84;;;26.19;40.68
19150;BME280;9707;49.158;8.632;2022-09-09T06:00:40;100014.28;;;26.20;40.95
19150;BME280;9707;49.158;8.632;2022-09-09T06:03:05;100010.53;;;26.21;40.71
19150;BME280;9707;49.158;8.632;2022-09-09T06:05:31;100011.38;;;26.21;40.96
19150;BME280;9707;49.158;8.632;2022-09-09T06:07:56;100016.66;;;26.23;40.92
19150;BME280;9707;49.158;8.632;2022-09-09T06:10:22;100014.94;;;26.22;40.84
19150;BME280;9707;49.158;8.632;2022-09-09T06:12:47;100015.66;;;26.24;40.59
19150;BME280;9707;49.158;8.632;2022-09-09T06:15:13;100019.38;;;26.23;40.64
19150;BME280;9707;49.158;8.632;2022-09-09T06:17:38;100016.84;;;26.21;41.03
19150;BME280;9707;49.158;8.632;2022-09-09T06:20:04;100024.53;;;26.26;41.15
19150;BME280;9707;49.158;8.632;2022-09-09T06:22:30;100028.97;;;26.27;41.07
19150;BME280;9707;49.158;8.632;2022-09-09T06:24:55;100026.22;;;26.27;40.95
19150;BME280;9707;49.158;8.632;2022-09-09T06:27:20;100026.22;;;26.27;40.79
19150;BME280;9707;49.158;8.632;2022-09-09T06:29:46;100029.81;;;26.27;40.70
19150;BME280;9707;49.158;8.632;2022-09-09T06:32:13;100039.56;;;26.30;41.04
19150;BME280;9707;49.158;8.632;2022-09-09T06:34:38;100027.59;;;26.31;40.95
19150;BME280;9707;49.158;8.632;2022-09-09T06:37:04;100027.59;;;26.31;41.14
19150;BME280;9707;49.158;8.632;2022-09-09T06:39:31;100031.88;;;26.33;40.79
19150;BME280;9707;49.158;8.632;2022-09-09T06:41:56;100037.34;;;26.33;40.71
19150;BME280;9707;49.158;8.632;2022-09-09T06:44:23;100040.75;;;26.35;40.92
19150;BME280;9707;49.158;8.632;2022-09-09T06:46:51;100037.84;;;26.37;40.62
19150;BME280;9707;49.158;8.632;2022-09-09T06:49:17;100036.16;;;26.36;40.63
19150;BME280;9707;49.158;8.632;2022-09-09T06:51:42;100044.00;;;26.39;40.66
19150;BME280;9707;49.158;8.632;2022-09-09T06:54:09;100036.66;;;26.39;40.81
19150;BME280;9707;49.158;8.632;2022-09-09T06:56:37;100035.47;;;26.42;40.67
19150;BME280;9707;49.158;8.632;2022-09-09T06:59:04;100037.19;;;26.43;40.88
19150;BME280;9707;49.158;8.632;2022-09-09T07:01:36;100039.91;;;26.43;40.16
19150;BME280;9707;49.158;8.632;2022-09-09T07:04:03;100036.16;;;26.44;40.56
19150;BME280;9707;49.158;8.632;2022-09-09T07:06:37;100040.59;;;26.45;40.25
19150;BME280;9707;49.158;8.632;2022-09-09T07:09:05;100040.59;;;26.45;40.42
19150;BME280;9707;49.158;8.632;2022-09-09T07:11:33;100036.84;;;26.46;40.82
19150;BME280;9707;49.158;8.632;2022-09-09T07:14:00;100036.69;;;26.47;40.07
19150;BME280;9707;49.158;8.632;2022-09-09T07:16:26;100040.25;;;26.48;40.32
19150;BME280;9707;49.158;8.632;2022-09-09T07:18:57;100041.13;;;26.48;40.17
19150;BME280;9707;49.158;8.632;2022-09-09T07:21:26;100039.06;;;26.50;40.10
19150;BME280;9707;49.158;8.632;2022-09-09T07:23:53;100037.03;;;26.52;40.36
19150;BME280;9707;49.158;8.632;2022-09-09T07:26:21;100032.41;;;26.53;40.23
19150;BME280;9707;49.158;8.632;2022-09-09T07:28:47;100034.97;;;26.54;40.27
19150;BME280;9707;49.158;8.632;2022-09-09T07:33:43;100031.94;;;26.57;40.21
19150;BME280;9707;49.158;8.632;2022-09-09T07:36:30;100038.09;;;26.59;40.11
19150;BME280;9707;49.158;8.632;2022-09-09T07:38:58;100034.16;;;26.62;39.99
19150;BME280;9707;49.158;8.632;2022-09-09T07:41:27;100042.19;;;26.63;39.99
19150;BME280;9707;49.158;8.632;2022-09-09T07:43:53;100036.72;;;26.63;39.70
19150;BME280;9707;49.158;8.632;2022-09-09T07:46:23;100049.22;;;26.66;40.03
19150;BME280;9707;49.158;8.632;2022-09-09T07:48:52;100052.59;;;26.68;39.67
19150;BME280;9707;49.158;8.632;2022-09-09T07:51:20;100048.84;;;26.69;39.35
19150;BME280;9707;49.158;8.632;2022-09-09T07:53:48;100045.13;;;26.70;39.36
19150;BME280;9707;49.158;8.632;2022-09-09T07:56:15;100044.09;;;26.71;39.65
19150;BME280;9707;49.158;8.632;2022-09-09T07:58:46;100052.13;;;26.72;39.31
19150;BME280;9707;49.158;8.632;2022-09-09T08:01:14;100050.22;;;26.73;39.36
19150;BME280;9707;49.158;8.632;2022-09-09T08:03:42;100059.97;;;26.75;39.23
19150;BME280;9707;49.158;8.632;2022-09-09T08:06:08;100053.66;;;26.75;39.18
19150;BME280;9707;49.158;8.632;2022-09-09T08:08:35;100048.88;;;26.77;39.23
19150;BME280;9707;49.158;8.632;2022-09-09T08:11:22;100054.16;;;26.78;39.14
19150;BME280;9707;49.158;8.632;2022-09-09T08:13:49;100052.25;;;26.79;39.04
19150;BME280;9707;49.158;8.632;2022-09-09T08:16:18;100049.38;;;26.80;38.95
19150;BME280;9707;49.158;8.632;2022-09-09T08:18:44;100042.88;;;26.81;38.92
19150;BME280;9707;49.158;8.632;2022-09-09T08:21:16;100045.44;;;26.83;38.28
19150;BME280;9707;49.158;8.632;2022-09-09T08:23:44;100049.88;;;26.84;38.60
19150;BME280;9707;49.158;8.632;2022-09-09T08:26:18;100057.75;;;26.87;39.04
19150;BME280;9707;49.158;8.632;2022-09-09T08:28:48;100056.72;;;26.88;38.60
19150;BME280;9707;49.158;8.632;2022-09-09T08:31:26;100063.88;;;26.89;37.70
19150;BME280;9707;49.158;8.632;2022-09-09T08:33:53;100064.75;;;26.89;38.17
19150;BME280;9707;49.158;8.632;2022-09-09T08:36:21;100070.06;;;26.91;38.06
19150;BME280;9707;49.158;8.632;2022-09-09T08:38:48;100081.00;;;26.91;37.93
19150;BME280;9707;49.158;8.632;2022-09-09T08:44:18;100088.69;;;26.87;38.30
19150;BME280;9707;49.158;8.632;2022-09-09T08:50:05;100077.03;;;26.85;39.34
19150;BME280;9707;49.158;8.632;2022-09-09T08:52:57;100079.28;;;26.90;39.49
19150;BME280;9707;49.158;8.632;2022-09-09T08:58:13;100074.31;;;26.93;40.34
19150;BME280;9707;49.158;8.632;2022-09-09T09:11:26;100088.16;;;27.08;38.74
19150;BME280;9707;49.158;8.632;2022-09-09T09:13:56;100069.69;;;27.10;38.70
19150;BME280;9707;49.158;8.632;2022-09-09T09:19:00;100074.81;;;27.13;38.98
19150;BME280;9707;49.158;8.632;2022-09-09T09:21:45;100068.16;;;27.15;38.71
19150;BME280;9707;49.158;8.632;2022-09-09T09:24:39;100063.56;;;27.16;38.62
19150;BME280;9707;49.158;8.632;2022-09-09T09:27:13;100058.91;;;27.16;38.50
19150;BME280;9707;49.158;8.632;2022-09-09T09:29:40;100063.22;;;27.19;38.13
19150;BME280;9707;49.158;8.632;2022-09-09T09:32:11;100059.47;;;27.20;37.71
19150;BME280;9707;49.158;8.632;2022-09-09T09:34:39;100069.41;;;27.21;37.72
19150;BME280;9707;49.158;8.632;2022-09-09T09:37:17;100071.75;;;27.24;37.47
19150;BME280;9707;49.158;8.632;2022-09-09T09:39:46;100065.47;;;27.23;37.39
19150;BME280;9707;49.158;8.632;2022-09-09T09:42:15;100061.69;;;27.24;37.53
19150;BME280;9707;49.158;8.632;2022-09-09T09:44:43;100066.78;;;27.27;37.58
19150;BME280;9707;49.158;8.632;2022-09-09T09:47:28;100071.94;;;27.30;37.27
19150;BME280;9707;49.158;8.632;2022-09-09T09:49:58;100069.03;;;27.32;37.16
19150;BME280;9707;49.158;8.632;2022-09-09T09:52:33;100075.16;;;27.34;36.87
19150;BME280;9707;49.158;8.632;2022-09-09T09:55:03;100075.88;;;27.36;36.53
19150;BME280;9707;49.158;8.632;2022-09-09T09:57:31;100067.47;;;27.37;36.49
19150;BME280;9707;49.158;8.632;2022-09-09T10:02:40;100072.78;;;27.39;36.13
19150;BME280;9707;49.158;8.632;2022-09-09T10:05:21;100066.25;;;27.40;35.91
19150;BME280;9707;49.158;8.632;2022-09-09T10:08:12;100069.00;;;27.40;36.28
19150;BME280;9707;49.158;8.632;2022-09-09T10:19:00;100065.94;;;27.43;36.31
19150;BME280;9707;49.158;8.632;2022-09-09T10:27:15;100053.63;;;27.47;36.49
19150;BME280;9707;49.158;8.632;2022-09-09T10:40:30;100042.50;;;27.48;36.46
19150;BME280;9707;49.158;8.632;2022-09-09T10:43:25;100055.97;;;27.50;36.02
19150;BME280;9707;49.158;8.632;2022-09-09T10:46:49;100048.47;;;27.52;35.62
19150;BME280;9707;49.158;8.632;2022-09-09T10:55:00;100051.53;;;27.57;35.03
19150;BME280;9707;49.158;8.632;2022-09-09T10:57:40;100051.38;;;27.58;34.76
19150;BME280;9707;49.158;8.632;2022-09-09T11:00:35;100039.38;;;27.59;34.61
19150;BME280;9707;49.158;8.632;2022-09-09T11:03:04;100046.41;;;27.62;34.72
19150;BME280;9707;49.158;8.632;2022-09-09T11:08:36;100044.31;;;27.64;34.93
19150;BME280;9707;49.158;8.632;2022-09-09T11:11:09;100052.38;;;27.65;34.48
19150;BME280;9707;49.158;8.632;2022-09-09T11:16:57;100041.25;;;27.67;34.51
19150;BME280;9707;49.158;8.632;2022-09-09T11:19:35;100034.06;;;27.66;33.92
19150;BME280;9707;49.158;8.632;2022-09-09T11:24:53;100035.78;;;27.67;33.39
19150;BME280;9707;49.158;8.632;2022-09-09T11:27:32;100036.59;;;27.67;34.04
19150;BME280;9707;49.158;8.632;2022-09-09T11:30:21;100032.16;;;27.66;33.97
19150;BME280;9707;49.158;8.632;2022-09-09T11:35:45;100034.91;;;27.66;34.12
19150;BME280;9707;49.158;8.632;2022-09-09T11:38:45;100033.88;;;27.67;34.79
19150;BME280;9707;49.158;8.632;2022-09-09T11:41:16;100030.13;;;27.68;34.37
19150;BME280;9707;49.158;8.632;2022-09-09T11:43:50;100023.78;;;27.68;34.81
19150;BME280;9707;49.158;8.632;2022-09-09T11:46:20;100025.31;;;27.70;34.35
19150;BME280;9707;49.158;8.632;2022-09-09T11:49:01;100008.03;;;27.70;34.24
19150;BME280;9707;49.158;8.632;2022-09-09T11:51:29;100008.03;;;27.70;34.29
19150;BME280;9707;49.158;8.632;2022-09-09T11:54:29;100001.72;;;27.69;34.35
19150;BME280;9707;49.158;8.632;2022-09-09T11:56:55;100002.56;;;27.70;34.50
19150;BME280;9707;49.158;8.632;2022-09-09T11:59:32;100000.53;;;27.72;33.70
19150;BME280;9707;49.158;8.632;2022-09-09T12:02:23;99996.91;;;27.71;34.12
19150;BME280;9707;49.158;8.632;2022-09-09T12:07:34;99996.91;;;27.71;33.96
19150;BME280;9707;49.158;8.632;2022-09-09T12:12:34;99999.47;;;27.73;33.07
19150;BME280;9707;49.158;8.632;2022-09-09T12:17:30;99997.75;;;27.80;34.35
19150;BME280;9707;49.158;8.632;2022-09-09T12:20:30;100000.16;;;27.83;33.97
19150;BME280;9707;49.158;8.632;2022-09-09T12:31:24;99992.44;;;27.86;34.50
19150;BME280;9707;49.158;8.632;2022-09-09T12:33:50;99992.44;;;27.86;34.68
19150;BME280;9707;49.158;8.632;2022-09-09T12:36:37;100005.78;;;27.89;34.21
19150;BME280;9707;49.158;8.632;2022-09-09T12:39:16;100000.97;;;27.91;33.79
19150;BME280;9707;49.158;8.632;2022-09-09T12:41:51;100006.25;;;27.93;33.24
19150;BME280;9707;49.158;8.632;2022-09-09T12:44:21;100009.84;;;27.93;32.86
19150;BME280;9707;49.158;8.632;2022-09-09T12:46:46;100009.00;;;27.93;33.18
19150;BME280;9707;49.158;8.632;2022-09-09T12:49:28;100019.94;;;27.93;34.05
19150;BME280;9707;49.158;8.632;2022-09-09T12:52:00;100016.72;;;27.89;34.90
19150;BME280;9707;49.158;8.632;2022-09-09T12:54:26;100027.16;;;27.86;35.10
19150;BME280;9707;49.158;8.632;2022-09-09T12:56:51;100021.34;;;27.81;35.98
19150;BME280;9707;49.158;8.632;2022-09-09T12:59:23;100031.66;;;27.79;35.84
19150;BME280;9707;49.158;8.632;2022-09-09T13:01:58;100027.16;;;27.78;37.63
19150;BME280;9707;49.158;8.632;2022-09-09T13:04:24;100031.78;;;27.77;37.38
19150;BME280;9707;49.158;8.632;2022-09-09T13:06:50;100031.78;;;27.77;37.51
19150;BME280;9707;49.158;8.632;2022-09-09T13:09:17;100032.66;;;27.78;37.63
19150;BME280;9707;49.158;8.632;2022-09-09T13:11:48;100034.22;;;27.80;37.93
19150;BME280;9707;49.158;8.632;2022-09-09T13:14:19;100026.50;;;27.84;38.38
19150;BME280;9707;49.158;8.632;2022-09-09T13:16:59;100018.94;;;27.86;38.20
19150;BME280;9707;49.158;8.632;2022-09-09T13:19:26;100038.97;;;27.86;38.09
19150;BME280;9707;49.158;8.632;2022-09-09T13:21:54;100049.91;;;27.86;38.38
19150;BME280;9707;49.158;8.632;2022-09-09T13:24:33;100052.66;;;27.86;37.92
19150;BME280;9707;49.158;8.632;2022-09-09T13:27:25;100041.22;;;27.83;36.02
19150;BME280;9707;49.158;8.632;2022-09-09T13:29:53;100043.75;;;27.76;35.25
19150;BME280;9707;49.158;8.632;2022-09-09T13:32:20;100042.22;;;27.74;35.16
19150;BME280;9707;49.158;8.632;2022-09-09T13:37:24;100036.75;;;27.74;36.07
19150;BME280;9707;49.158;8.632;2022-09-09T13:39:53;100034.72;;;27.76;36.82
19150;BME280;9707;49.158;8.632;2022-09-09T13:42:24;100031.66;;;27.79;37.61
19150;BME280;9707;49.158;8.632;2022-09-09T13:44:51;100019.66;;;27.80;37.69
19150;BME280;9707;49.158;8.632;2022-09-09T13:47:21;100022.06;;;27.83;36.81
19150;BME280;9707;49.158;8.632;2022-09-09T13:49:48;100019.16;;;27.84;37.16
19150;BME280;9707;49.158;8.632;2022-09-09T13:52:18;100007.16;;;27.85;36.84
19150;BME280;9707;49.158;8.632;2022-09-09T13:54:51;100003.38;;;27.86;37.94
19150;BME280;9707;49.158;8.632;2022-09-09T13:57:18;99993.28;;;27.87;37.28
19150;BME280;9707;49.158;8.632;2022-09-09T13:59:45;99995.00;;;27.88;37.71
19150;BME280;9707;49.158;8.632;2022-09-09T14:02:11;99990.34;;;27.88;37.34
19150;BME280;9707;49.158;8.632;2022-09-09T14:04:36;99987.63;;;27.88;37.85
19150;BME280;9707;49.158;8.632;2022-09-09T14:07:02;99987.44;;;27.90;38.43
19150;BME280;9707;49.158;8.632;2022-09-09T14:09:28;99990.88;;;27.92;37.81
19150;BME280;9707;49.158;8.632;2022-09-09T14:11:53;99983.66;;;27.91;37.96
19150;BME280;9707;49.158;8.632;2022-09-09T14:14:20;99984.38;;;27.93;38.36
19150;BME280;9707;49.158;8.632;2022-09-09T14:16:46;99986.22;;;27.92;38.51
19150;BME280;9707;49.158;8.632;2022-09-09T14:19:11;99996.53;;;27.90;38.39
19150;BME280;9707;49.158;8.632;2022-09-09T14:21:36;100002.84;;;27.91;38.63
19150;BME280;9707;49.158;8.632;2022-09-09T14:24:02;100008.31;;;27.91;38.78
19150;BME280;9707;49.158;8.632;2022-09-09T14:26:27;100005.56;;;27.91;38.42
19150;BME280;9707;49.158;8.632;2022-09-09T14:28:55;100000.09;;;27.91;39.07
19150;BME280;9707;49.158;8.632;2022-09-09T14:31:20;100014.66;;;27.91;39.27
19150;BME280;9707;49.158;8.632;2022-09-09T14:33:46;100019.25;;;27.91;39.38
19150;BME280;9707;49.158;8.632;2022-09-09T14:36:12;100020.28;;;27.90;39.89
19150;BME280;9707;49.158;8.632;2022-09-09T14:38:38;100011.03;;;27.91;40.38
19150;BME280;9707;49.158;8.632;2022-09-09T14:41:05;100001.13;;;27.90;39.15
19150;BME280;9707;49.158;8.632;2022-09-09T14:43:30;100017.06;;;27.86;39.66
19150;BME280;9707;49.158;8.632;2022-09-09T14:48:32;99996.22;;;27.85;40.31
19150;BME280;9707;49.158;8.632;2022-09-09T14:53:36;99987.81;;;27.87;40.67
19150;BME280;9707;49.158;8.632;2022-09-09T14:56:05;99985.09;;;27.87;41.10
19150;BME280;9707;49.158;8.632;2022-09-09T14:58:31;99996.88;;;27.87;40.43
19150;BME280;9707;49.158;8.632;2022-09-09T15:01:11;100002.50;;;27.86;39.90
19150;BME280;9707;49.158;8.632;2022-09-09T15:03:41;100013.66;;;27.84;39.98
19150;BME280;9707;49.158;8.632;2022-09-09T15:06:12;100002.50;;;27.86;39.71
19150;BME280;9707;49.158;8.632;2022-09-09T15:08:41;99999.97;;;27.84;39.61
19150;BME280;9707;49.158;8.632;2022-09-09T15:11:07;100006.28;;;27.85;39.89
19150;BME280;9707;49.158;8.632;2022-09-09T15:13:34;100008.84;;;27.86;39.96
19150;BME280;9707;49.158;8.632;2022-09-09T15:16:08;100025.44;;;27.85;39.27
19150;BME280;9707;49.158;8.632;2022-09-09T15:18:34;100034.53;;;27.85;39.42
19150;BME280;9707;49.158;8.632;2022-09-09T15:21:02;100041.22;;;27.83;38.98
19150;BME280;9707;49.158;8.632;2022-09-09T15:23:31;100035.56;;;27.84;38.54
19150;BME280;9707;49.158;8.632;2022-09-09T15:25:57;100047.72;;;27.82;38.49
19150;BME280;9707;49.158;8.632;2022-09-09T15:28:22;100032.50;;;27.79;38.83
19150;BME280;9707;49.158;8.632;2022-09-09T15:30:49;100011.63;;;27.78;39.62
19150;BME280;9707;49.158;8.632;2022-09-09T15:33:14;99997.94;;;27.78;39.67
19150;BME280;9707;49.158;8.632;2022-09-09T15:35:40;99988.72;;;27.79;38.97
19150;BME280;9707;49.158;8.632;2022-09-09T15:38:05;99999.47;;;27.81;39.84
19150;BME280;9707;49.158;8.632;2022-09-09T15:40:31;99995.72;;;27.82;39.93